Ufo 3 — IUNV — position and weather

sailwx.info

Track history (hours):
 
Tides and Currents Weather Stations Pressure Air Temp Water Temp Dewpoint Dewpoint Depression Visibility Wind Speed Wind Dir Waves Ship Positions

Ufo 3

Last reported at 2017-Sep-19 13:45 UTC. Time now 2017-Sep-19 17:17 UTC.
Position N 44°03' E 009°51'.

Length 28 m.

Type: Passenger vessel. MMSI: 247031600.

Date/timePositionNaut miles runAvg speedWind from/ knotsBaromVisibWave heightAir tempDewpointWater temp
2017-Sep-19 13:45N 44°03' E 009°51'0 1.7
2017-Sep-19 13:30N 44°03' E 009°50'10 6.9
2017-Sep-19 12:08N 44°08' E 009°39'0 0.4
2017-Sep-19 12:00N 44°08' E 009°39'1 1.3
2017-Sep-19 11:29N 44°08' E 009°40'0 0.0
2017-Sep-19 10:57N 44°08' E 009°40'0 0.4
2017-Sep-19 09:45N 44°08' E 009°39'0 0.6
2017-Sep-19 09:12N 44°08' E 009°40'1 4.8
2017-Sep-19 08:59N 44°07' E 009°41'612.1
2017-Sep-19 08:31N 44°04' E 009°47'3 6.0
2017-Sep-19 08:00N 44°06' E 009°50'2 4.2
2017-Sep-19 07:30N 44°04' E 009°51'  
2017-Sep-16 17:35N 44°03' E 009°51'0 2.7
2017-Sep-16 17:31N 44°03' E 009°51'816.3
2017-Sep-16 17:00N 44°07' E 009°40'1 0.7
2017-Sep-16 16:00N 44°07' E 009°41'3 4.4
2017-Sep-16 15:26N 44°06' E 009°44'512.5
2017-Sep-16 15:00N 44°03' E 009°50'0 0.0
2017-Sep-16 14:31N 44°03' E 009°50'0 0.0
2017-Sep-16 14:01N 44°03' E 009°50'5 9.6
2017-Sep-16 13:31N 44°05' E 009°44'5 4.8
2017-Sep-16 12:28N 44°09' E 009°39'0 0.0
2017-Sep-16 11:48N 44°09' E 009°39'0 0.1
2017-Sep-16 11:18N 44°09' E 009°39'2 6.5
2017-Sep-16 10:57N 44°07' E 009°41'2 4.3
2017-Sep-16 10:27N 44°06' E 009°44'511.7
2017-Sep-16 10:01N 44°03' E 009°50'2 4.3
2017-Sep-16 09:31N 44°05' E 009°50'1 2.3
2017-Sep-16 09:00N 44°06' E 009°50'0 0.0
2017-Sep-16 08:31N 44°06' E 009°50'2 3.3
2017-Sep-16 08:00N 44°05' E 009°51'2 3.5
2017-Sep-16 07:31N 44°03' E 009°51'0 0.0
2017-Sep-16 07:01N 44°03' E 009°51'0 0.0
2017-Sep-16 06:30N 44°03' E 009°51'0 0.0
2017-Sep-16 05:39N 44°03' E 009°51'0 0.0
2017-Sep-16 05:30N 44°03' E 009°51'0 0.0
2017-Sep-16 05:00N 44°03' E 009°51'0 0.0
2017-Sep-16 04:31N 44°03' E 009°51'0 0.0
2017-Sep-16 04:01N 44°03' E 009°51'0 0.0
2017-Sep-15 11:01N 44°03' E 009°51'0 1.5
2017-Sep-15 11:01N 44°03' E 009°51'1 2.0
2017-Sep-15 10:31N 44°04' E 009°51'1 2.3
2017-Sep-15 10:00N 44°03' E 009°50'3 6.8
2017-Sep-15 09:30N 44°04' E 009°55'0 0.0
2017-Sep-15 09:00N 44°04' E 009°55'0 0.0
2017-Sep-15 08:30N 44°04' E 009°55'0 0.0
2017-Sep-15 08:00N 44°04' E 009°55'3 6.2
2017-Sep-15 07:30N 44°03' E 009°51'0 0.0
2017-Sep-15 07:00N 44°03' E 009°51'0 0.0
2017-Sep-15 05:04N 44°03' E 009°51'0 0.0
2017-Sep-15 05:00N 44°03' E 009°51'0 0.0
2017-Sep-15 04:30N 44°03' E 009°51'  
2017-Sep-12 05:42N 44°03' E 009°51'0 0.0
2017-Sep-12 05:30N 44°03' E 009°51'0 0.0
2017-Sep-12 05:00N 44°03' E 009°51'0 0.0
2017-Sep-12 04:30N 44°03' E 009°51'0 0.0
2017-Sep-12 04:00N 44°03' E 009°51'0 0.0
2017-Sep-11 16:03N 44°03' E 009°51'0 0.8
2017-Sep-11 16:00N 44°03' E 009°51'2 4.1
2017-Sep-11 15:31N 44°04' E 009°53'2 4.8
2017-Sep-11 15:00N 44°03' E 009°50'0 0.0
2017-Sep-11 14:30N 44°03' E 009°50'0 0.5
2017-Sep-11 14:00N 44°03' E 009°51'4 7.3
2017-Sep-11 13:31N 44°04' E 009°46'6 8.3
2017-Sep-11 12:44N 44°09' E 009°39'2 9.4
2017-Sep-11 12:30N 44°07' E 009°42'713.4
2017-Sep-11 12:00N 44°03' E 009°49'1 1.7
2017-Sep-11 11:30N 44°03' E 009°50'0 0.0
2017-Sep-11 11:00N 44°03' E 009°50'0 0.0
2017-Sep-11 10:30N 44°03' E 009°50'3 6.5
2017-Sep-11 10:00N 44°04' E 009°54'3 6.6
2017-Sep-11 09:30N 44°03' E 009°50'611.2
2017-Sep-11 09:00N 44°06' E 009°43'4 6.7
2017-Sep-11 08:24N 44°09' E 009°39'2 2.9
2017-Sep-11 07:45N 44°09' E 009°37'418.0
2017-Sep-11 07:30N 44°05' E 009°41'714.0
2017-Sep-11 07:01N 44°03' E 009°50'0 0.0
2017-Sep-11 06:30N 44°03' E 009°50'0 0.0
2017-Sep-11 06:00N 44°03' E 009°50'0 0.9
2017-Sep-11 05:30N 44°03' E 009°51'0 0.0
2017-Sep-11 05:01N 44°03' E 009°51'0 0.0
2017-Sep-11 04:30N 44°03' E 009°51'  
Track history (hours):
 
Tides and Currents Weather Stations Pressure Air Temp Water Temp Dewpoint Dewpoint Depression Visibility Wind Speed Wind Dir Waves Ship Positions

Ufo 3

Last reported at 2017-Sep-19 13:45 UTC. Time now 2017-Sep-19 17:17 UTC.
Position N 44°03' E 009°51'.

Length 28 m.

Type: Passenger vessel. MMSI: 247031600.

Date/timePositionNaut miles runAvg speedWind from/ knotsBaromVisibWave heightAir tempDewpointWater temp
2017-Sep-19 13:45N 44°03' E 009°51'0 1.7
2017-Sep-19 13:30N 44°03' E 009°50'10 6.9
2017-Sep-19 12:08N 44°08' E 009°39'0 0.4
2017-Sep-19 12:00N 44°08' E 009°39'1 1.3
2017-Sep-19 11:29N 44°08' E 009°40'0 0.0
2017-Sep-19 10:57N 44°08' E 009°40'0 0.4
2017-Sep-19 09:45N 44°08' E 009°39'0 0.6
2017-Sep-19 09:12N 44°08' E 009°40'1 4.8
2017-Sep-19 08:59N 44°07' E 009°41'612.1
2017-Sep-19 08:31N 44°04' E 009°47'3 6.0
2017-Sep-19 08:00N 44°06' E 009°50'2 4.2
2017-Sep-19 07:30N 44°04' E 009°51'  
2017-Sep-16 17:35N 44°03' E 009°51'0 2.7
2017-Sep-16 17:31N 44°03' E 009°51'816.3
2017-Sep-16 17:00N 44°07' E 009°40'1 0.7
2017-Sep-16 16:00N 44°07' E 009°41'3 4.4
2017-Sep-16 15:26N 44°06' E 009°44'512.5
2017-Sep-16 15:00N 44°03' E 009°50'0 0.0
2017-Sep-16 14:31N 44°03' E 009°50'0 0.0
2017-Sep-16 14:01N 44°03' E 009°50'5 9.6
2017-Sep-16 13:31N 44°05' E 009°44'5 4.8
2017-Sep-16 12:28N 44°09' E 009°39'0 0.0
2017-Sep-16 11:48N 44°09' E 009°39'0 0.1
2017-Sep-16 11:18N 44°09' E 009°39'2 6.5
2017-Sep-16 10:57N 44°07' E 009°41'2 4.3
2017-Sep-16 10:27N 44°06' E 009°44'511.7
2017-Sep-16 10:01N 44°03' E 009°50'2 4.3
2017-Sep-16 09:31N 44°05' E 009°50'1 2.3
2017-Sep-16 09:00N 44°06' E 009°50'0 0.0
2017-Sep-16 08:31N 44°06' E 009°50'2 3.3
2017-Sep-16 08:00N 44°05' E 009°51'2 3.5
2017-Sep-16 07:31N 44°03' E 009°51'0 0.0
2017-Sep-16 07:01N 44°03' E 009°51'0 0.0
2017-Sep-16 06:30N 44°03' E 009°51'0 0.0
2017-Sep-16 05:39N 44°03' E 009°51'0 0.0
2017-Sep-16 05:30N 44°03' E 009°51'0 0.0
2017-Sep-16 05:00N 44°03' E 009°51'0 0.0
2017-Sep-16 04:31N 44°03' E 009°51'0 0.0
2017-Sep-16 04:01N 44°03' E 009°51'0 0.0
2017-Sep-15 11:01N 44°03' E 009°51'0 1.5
2017-Sep-15 11:01N 44°03' E 009°51'1 2.0
2017-Sep-15 10:31N 44°04' E 009°51'1 2.3
2017-Sep-15 10:00N 44°03' E 009°50'3 6.8
2017-Sep-15 09:30N 44°04' E 009°55'0 0.0
2017-Sep-15 09:00N 44°04' E 009°55'0 0.0
2017-Sep-15 08:30N 44°04' E 009°55'0 0.0
2017-Sep-15 08:00N 44°04' E 009°55'3 6.2
2017-Sep-15 07:30N 44°03' E 009°51'0 0.0
2017-Sep-15 07:00N 44°03' E 009°51'0 0.0
2017-Sep-15 05:04N 44°03' E 009°51'0 0.0
2017-Sep-15 05:00N 44°03' E 009°51'0 0.0
2017-Sep-15 04:30N 44°03' E 009°51'  
2017-Sep-12 05:42N 44°03' E 009°51'0 0.0
2017-Sep-12 05:30N 44°03' E 009°51'0 0.0
2017-Sep-12 05:00N 44°03' E 009°51'0 0.0
2017-Sep-12 04:30N 44°03' E 009°51'0 0.0
2017-Sep-12 04:00N 44°03' E 009°51'0 0.0
2017-Sep-11 16:03N 44°03' E 009°51'0 0.8
2017-Sep-11 16:00N 44°03' E 009°51'2 4.1
2017-Sep-11 15:31N 44°04' E 009°53'2 4.8
2017-Sep-11 15:00N 44°03' E 009°50'0 0.0
2017-Sep-11 14:30N 44°03' E 009°50'0 0.5
2017-Sep-11 14:00N 44°03' E 009°51'4 7.3
2017-Sep-11 13:31N 44°04' E 009°46'6 8.3
2017-Sep-11 12:44N 44°09' E 009°39'2 9.4
2017-Sep-11 12:30N 44°07' E 009°42'713.4
2017-Sep-11 12:00N 44°03' E 009°49'1 1.7
2017-Sep-11 11:30N 44°03' E 009°50'0 0.0
2017-Sep-11 11:00N 44°03' E 009°50'0 0.0
2017-Sep-11 10:30N 44°03' E 009°50'3 6.5
2017-Sep-11 10:00N 44°04' E 009°54'3 6.6
2017-Sep-11 09:30N 44°03' E 009°50'611.2
2017-Sep-11 09:00N 44°06' E 009°43'4 6.7
2017-Sep-11 08:24N 44°09' E 009°39'2 2.9
2017-Sep-11 07:45N 44°09' E 009°37'418.0
2017-Sep-11 07:30N 44°05' E 009°41'714.0
2017-Sep-11 07:01N 44°03' E 009°50'0 0.0
2017-Sep-11 06:30N 44°03' E 009°50'0 0.0
2017-Sep-11 06:00N 44°03' E 009°50'0 0.9
2017-Sep-11 05:30N 44°03' E 009°51'0 0.0
2017-Sep-11 05:01N 44°03' E 009°51'0 0.0
2017-Sep-11 04:30N 44°03' E 009°51'  

Dump ship's entire track history